sensor_id;sensor_type;location;lat;lon;timestamp;P1;durP1;ratioP1;P2;durP2;ratioP2
76409;SDS011;65238;42.662;23.280;2023-08-07T00:00:25;1.60;;;1.50;;
76409;SDS011;65238;42.662;23.280;2023-08-07T00:02:50;1.58;;;1.48;;
76409;SDS011;65238;42.662;23.280;2023-08-07T00:05:16;1.40;;;1.30;;
76409;SDS011;65238;42.662;23.280;2023-08-07T00:07:44;1.67;;;1.30;;
76409;SDS011;65238;42.662;23.280;2023-08-07T00:10:10;1.33;;;1.23;;
76409;SDS011;65238;42.662;23.280;2023-08-07T00:12:36;2.13;;;1.55;;
76409;SDS011;65238;42.662;23.280;2023-08-07T00:15:04;1.50;;;1.38;;
76409;SDS011;65238;42.662;23.280;2023-08-07T00:17:30;1.73;;;1.50;;
76409;SDS011;65238;42.662;23.280;2023-08-07T00:19:56;1.52;;;1.40;;
76409;SDS011;65238;42.662;23.280;2023-08-07T00:22:21;2.20;;;1.00;;
76409;SDS011;65238;42.662;23.280;2023-08-07T00:24:47;2.28;;;0.98;;
76409;SDS011;65238;42.662;23.280;2023-08-07T00:27:12;1.33;;;1.23;;
76409;SDS011;65238;42.662;23.280;2023-08-07T00:29:39;1.98;;;1.30;;
76409;SDS011;65238;42.662;23.280;2023-08-07T00:32:04;1.40;;;1.30;;
76409;SDS011;65238;42.662;23.280;2023-08-07T00:34:30;3.35;;;1.60;;
76409;SDS011;65238;42.662;23.280;2023-08-07T00:36:56;1.33;;;1.23;;
76409;SDS011;65238;42.662;23.280;2023-08-07T00:39:21;1.63;;;1.52;;
76409;SDS011;65238;42.662;23.280;2023-08-07T00:41:46;1.50;;;1.33;;
76409;SDS011;65238;42.662;23.280;2023-08-07T00:44:12;1.50;;;1.17;;
76409;SDS011;65238;42.662;23.280;2023-08-07T00:46:37;1.40;;;1.30;;
76409;SDS011;65238;42.662;23.280;2023-08-07T00:49:04;1.38;;;1.27;;
76409;SDS011;65238;42.662;23.280;2023-08-07T00:51:30;1.55;;;1.45;;
76409;SDS011;65238;42.662;23.280;2023-08-07T00:53:56;3.35;;;1.40;;
76409;SDS011;65238;42.662;23.280;2023-08-07T00:56:22;1.60;;;1.50;;
76409;SDS011;65238;42.662;23.280;2023-08-07T00:58:47;3.33;;;1.70;;
76409;SDS011;65238;42.662;23.280;2023-08-07T01:01:13;2.70;;;1.40;;
76409;SDS011;65238;42.662;23.280;2023-08-07T01:03:39;1.63;;;1.13;;
76409;SDS011;65238;42.662;23.280;2023-08-07T01:06:05;1.65;;;1.55;;
76409;SDS011;65238;42.662;23.280;2023-08-07T01:08:31;2.83;;;1.70;;
76409;SDS011;65238;42.662;23.280;2023-08-07T01:13:31;1.92;;;1.70;;
76409;SDS011;65238;42.662;23.280;2023-08-07T01:16:01;1.92;;;1.65;;
76409;SDS011;65238;42.662;23.280;2023-08-07T01:18:32;4.63;;;4.22;;
76409;SDS011;65238;42.662;23.280;2023-08-07T01:20:59;4.22;;;3.83;;
76409;SDS011;65238;42.662;23.280;2023-08-07T01:23:25;3.28;;;2.97;;
76409;SDS011;65238;42.662;23.280;2023-08-07T01:25:50;2.85;;;2.20;;
76409;SDS011;65238;42.662;23.280;2023-08-07T01:28:17;2.60;;;2.20;;
76409;SDS011;65238;42.662;23.280;2023-08-07T01:30:47;3.25;;;2.15;;
76409;SDS011;65238;42.662;23.280;2023-08-07T01:33:57;2.03;;;1.85;;
76409;SDS011;65238;42.662;23.280;2023-08-07T01:36:17;3.30;;;2.10;;
76409;SDS011;65238;42.662;23.280;2023-08-07T01:38:43;1.88;;;1.75;;
76409;SDS011;65238;42.662;23.280;2023-08-07T01:41:09;2.33;;;2.13;;
76409;SDS011;65238;42.662;23.280;2023-08-07T01:43:35;4.95;;;1.83;;
76409;SDS011;65238;42.662;23.280;2023-08-07T01:46:01;2.15;;;1.95;;
76409;SDS011;65238;42.662;23.280;2023-08-07T01:48:26;2.35;;;2.15;;
76409;SDS011;65238;42.662;23.280;2023-08-07T01:50:52;1.85;;;1.75;;
76409;SDS011;65238;42.662;23.280;2023-08-07T01:53:18;2.50;;;2.17;;
76409;SDS011;65238;42.662;23.280;2023-08-07T01:55:43;2.75;;;1.92;;
76409;SDS011;65238;42.662;23.280;2023-08-07T01:58:09;2.13;;;1.83;;
76409;SDS011;65238;42.662;23.280;2023-08-07T02:00:34;2.15;;;1.95;;
76409;SDS011;65238;42.662;23.280;2023-08-07T02:02:59;2.95;;;2.30;;
76409;SDS011;65238;42.662;23.280;2023-08-07T02:05:25;2.35;;;1.98;;
76409;SDS011;65238;42.662;23.280;2023-08-07T02:07:50;1.80;;;1.70;;
76409;SDS011;65238;42.662;23.280;2023-08-07T02:10:16;2.20;;;1.80;;
76409;SDS011;65238;42.662;23.280;2023-08-07T02:12:41;2.17;;;1.98;;
76409;SDS011;65238;42.662;23.280;2023-08-07T02:15:07;2.13;;;1.90;;
76409;SDS011;65238;42.662;23.280;2023-08-07T02:17:32;2.85;;;1.95;;
76409;SDS011;65238;42.662;23.280;2023-08-07T02:19:58;3.08;;;1.60;;
76409;SDS011;65238;42.662;23.280;2023-08-07T02:22:24;4.68;;;1.70;;
76409;SDS011;65238;42.662;23.280;2023-08-07T02:24:49;2.53;;;2.28;;
76409;SDS011;65238;42.662;23.280;2023-08-07T02:27:15;2.75;;;1.45;;
76409;SDS011;65238;42.662;23.280;2023-08-07T02:29:40;2.78;;;1.90;;
76409;SDS011;65238;42.662;23.280;2023-08-07T02:32:06;3.53;;;1.48;;
76409;SDS011;65238;42.662;23.280;2023-08-07T02:34:31;1.50;;;1.40;;
76409;SDS011;65238;42.662;23.280;2023-08-07T02:36:57;3.72;;;1.65;;
76409;SDS011;65238;42.662;23.280;2023-08-07T02:39:24;4.78;;;1.83;;
76409;SDS011;65238;42.662;23.280;2023-08-07T02:41:49;2.60;;;1.55;;
76409;SDS011;65238;42.662;23.280;2023-08-07T02:44:15;1.50;;;1.40;;
76409;SDS011;65238;42.662;23.280;2023-08-07T02:46:42;1.67;;;1.58;;
76409;SDS011;65238;42.662;23.280;2023-08-07T02:49:08;2.70;;;1.88;;
76409;SDS011;65238;42.662;23.280;2023-08-07T02:51:33;1.63;;;1.45;;
76409;SDS011;65238;42.662;23.280;2023-08-07T02:53:58;3.95;;;1.80;;
76409;SDS011;65238;42.662;23.280;2023-08-07T02:56:24;3.15;;;2.20;;
76409;SDS011;65238;42.662;23.280;2023-08-07T02:58:49;3.17;;;2.08;;
76409;SDS011;65238;42.662;23.280;2023-08-07T03:01:15;3.80;;;2.22;;
76409;SDS011;65238;42.662;23.280;2023-08-07T03:03:40;2.95;;;1.90;;
76409;SDS011;65238;42.662;23.280;2023-08-07T03:06:05;1.98;;;1.77;;
76409;SDS011;65238;42.662;23.280;2023-08-07T03:08:31;2.25;;;2.03;;
76409;SDS011;65238;42.662;23.280;2023-08-07T03:10:57;3.50;;;2.10;;
76409;SDS011;65238;42.662;23.280;2023-08-07T03:13:26;2.20;;;2.00;;
76409;SDS011;65238;42.662;23.280;2023-08-07T03:15:58;2.60;;;2.40;;
76409;SDS011;65238;42.662;23.280;2023-08-07T03:18:25;2.22;;;2.03;;
76409;SDS011;65238;42.662;23.280;2023-08-07T03:20:50;2.42;;;2.22;;
76409;SDS011;65238;42.662;23.280;2023-08-07T03:23:15;3.40;;;2.05;;
76409;SDS011;65238;42.662;23.280;2023-08-07T03:25:41;3.10;;;2.80;;
76409;SDS011;65238;42.662;23.280;2023-08-07T03:28:06;3.20;;;2.58;;
76409;SDS011;65238;42.662;23.280;2023-08-07T03:30:32;5.30;;;2.95;;
76409;SDS011;65238;42.662;23.280;2023-08-07T03:32:57;3.30;;;2.70;;
76409;SDS011;65238;42.662;23.280;2023-08-07T03:35:22;3.03;;;2.65;;
76409;SDS011;65238;42.662;23.280;2023-08-07T03:37:48;3.72;;;2.65;;
76409;SDS011;65238;42.662;23.280;2023-08-07T03:40:13;3.20;;;2.90;;
76409;SDS011;65238;42.662;23.280;2023-08-07T03:42:39;2.90;;;2.60;;
76409;SDS011;65238;42.662;23.280;2023-08-07T03:45:04;3.75;;;3.10;;
76409;SDS011;65238;42.662;23.280;2023-08-07T03:47:30;2.83;;;2.50;;
76409;SDS011;65238;42.662;23.280;2023-08-07T03:49:56;3.75;;;2.63;;
76409;SDS011;65238;42.662;23.280;2023-08-07T03:52:21;2.83;;;2.60;;
76409;SDS011;65238;42.662;23.280;2023-08-07T03:54:46;5.15;;;2.60;;
76409;SDS011;65238;42.662;23.280;2023-08-07T03:57:12;3.10;;;2.80;;
76409;SDS011;65238;42.662;23.280;2023-08-07T03:59:37;4.07;;;2.78;;
76409;SDS011;65238;42.662;23.280;2023-08-07T04:02:03;4.22;;;2.60;;
76409;SDS011;65238;42.662;23.280;2023-08-07T04:04:28;2.40;;;2.20;;
76409;SDS011;65238;42.662;23.280;2023-08-07T04:06:54;2.80;;;2.60;;
76409;SDS011;65238;42.662;23.280;2023-08-07T04:09:19;3.40;;;2.80;;
76409;SDS011;65238;42.662;23.280;2023-08-07T04:11:45;2.67;;;2.47;;
76409;SDS011;65238;42.662;23.280;2023-08-07T04:14:10;2.88;;;2.58;;
76409;SDS011;65238;42.662;23.280;2023-08-07T04:16:36;7.75;;;2.45;;
76409;SDS011;65238;42.662;23.280;2023-08-07T04:19:02;2.58;;;2.38;;
76409;SDS011;65238;42.662;23.280;2023-08-07T04:21:28;3.35;;;2.40;;
76409;SDS011;65238;42.662;23.280;2023-08-07T04:23:53;2.58;;;2.38;;
76409;SDS011;65238;42.662;23.280;2023-08-07T04:26:19;4.63;;;2.50;;
76409;SDS011;65238;42.662;23.280;2023-08-07T04:28:44;2.63;;;2.22;;
76409;SDS011;65238;42.662;23.280;2023-08-07T04:31:09;3.58;;;2.65;;
76409;SDS011;65238;42.662;23.280;2023-08-07T04:33:35;2.38;;;2.13;;
76409;SDS011;65238;42.662;23.280;2023-08-07T04:36:01;4.53;;;2.40;;
76409;SDS011;65238;42.662;23.280;2023-08-07T04:38:26;2.10;;;1.90;;
76409;SDS011;65238;42.662;23.280;2023-08-07T04:40:52;3.42;;;2.40;;
76409;SDS011;65238;42.662;23.280;2023-08-07T04:43:17;3.90;;;2.10;;
76409;SDS011;65238;42.662;23.280;2023-08-07T04:45:45;3.13;;;2.83;;
76409;SDS011;65238;42.662;23.280;2023-08-07T04:48:11;2.55;;;2.35;;
76409;SDS011;65238;42.662;23.280;2023-08-07T04:50:36;4.47;;;2.72;;
76409;SDS011;65238;42.662;23.280;2023-08-07T04:53:02;2.60;;;2.40;;
76409;SDS011;65238;42.662;23.280;2023-08-07T04:55:29;2.78;;;2.58;;
76409;SDS011;65238;42.662;23.280;2023-08-07T04:57:54;4.35;;;2.47;;
76409;SDS011;65238;42.662;23.280;2023-08-07T05:00:21;3.47;;;2.15;;
76409;SDS011;65238;42.662;23.280;2023-08-07T05:02:47;3.88;;;2.33;;
76409;SDS011;65238;42.662;23.280;2023-08-07T05:05:15;5.55;;;2.80;;
76409;SDS011;65238;42.662;23.280;2023-08-07T05:07:41;5.20;;;3.13;;
76409;SDS011;65238;42.662;23.280;2023-08-07T05:10:08;5.03;;;3.40;;
76409;SDS011;65238;42.662;23.280;2023-08-07T05:12:34;5.63;;;4.30;;
76409;SDS011;65238;42.662;23.280;2023-08-07T05:14:59;7.85;;;5.50;;
76409;SDS011;65238;42.662;23.280;2023-08-07T05:17:25;3.90;;;2.60;;
76409;SDS011;65238;42.662;23.280;2023-08-07T05:19:50;5.38;;;3.38;;
76409;SDS011;65238;42.662;23.280;2023-08-07T05:22:16;3.63;;;3.33;;
76409;SDS011;65238;42.662;23.280;2023-08-07T05:24:41;2.83;;;2.47;;
76409;SDS011;65238;42.662;23.280;2023-08-07T05:27:08;3.85;;;2.45;;
76409;SDS011;65238;42.662;23.280;2023-08-07T05:29:34;2.72;;;2.50;;
76409;SDS011;65238;42.662;23.280;2023-08-07T05:32:08;3.22;;;2.75;;
76409;SDS011;65238;42.662;23.280;2023-08-07T05:34:33;3.63;;;2.10;;
76409;SDS011;65238;42.662;23.280;2023-08-07T05:36:59;2.72;;;2.45;;
76409;SDS011;65238;42.662;23.280;2023-08-07T05:39:24;6.70;;;2.53;;
76409;SDS011;65238;42.662;23.280;2023-08-07T05:41:50;1.90;;;1.80;;
76409;SDS011;65238;42.662;23.280;2023-08-07T05:44:18;2.88;;;2.45;;
76409;SDS011;65238;42.662;23.280;2023-08-07T05:46:44;3.95;;;2.33;;
76409;SDS011;65238;42.662;23.280;2023-08-07T05:49:09;2.70;;;2.08;;
76409;SDS011;65238;42.662;23.280;2023-08-07T05:51:35;2.45;;;2.25;;
76409;SDS011;65238;42.662;23.280;2023-08-07T05:54:00;2.90;;;2.60;;
76409;SDS011;65238;42.662;23.280;2023-08-07T05:56:26;2.47;;;2.20;;
76409;SDS011;65238;42.662;23.280;2023-08-07T05:58:51;5.57;;;2.53;;
76409;SDS011;65238;42.662;23.280;2023-08-07T06:01:16;2.88;;;2.45;;
76409;SDS011;65238;42.662;23.280;2023-08-07T06:03:42;3.70;;;2.78;;
76409;SDS011;65238;42.662;23.280;2023-08-07T06:06:08;2.92;;;2.63;;
76409;SDS011;65238;42.662;23.280;2023-08-07T06:08:33;4.50;;;2.30;;
76409;SDS011;65238;42.662;23.280;2023-08-07T06:10:59;2.25;;;1.85;;
76409;SDS011;65238;42.662;23.280;2023-08-07T06:13:28;2.53;;;2.15;;
76409;SDS011;65238;42.662;23.280;2023-08-07T06:15:54;2.30;;;2.10;;
76409;SDS011;65238;42.662;23.280;2023-08-07T06:18:19;2.72;;;2.40;;
76409;SDS011;65238;42.662;23.280;2023-08-07T06:20:45;2.47;;;2.25;;
76409;SDS011;65238;42.662;23.280;2023-08-07T06:23:10;5.30;;;2.38;;
76409;SDS011;65238;42.662;23.280;2023-08-07T06:25:35;2.95;;;2.15;;
76409;SDS011;65238;42.662;23.280;2023-08-07T06:28:01;2.65;;;1.98;;
76409;SDS011;65238;42.662;23.280;2023-08-07T06:30:26;3.00;;;2.22;;
76409;SDS011;65238;42.662;23.280;2023-08-07T06:32:52;3.90;;;2.40;;
76409;SDS011;65238;42.662;23.280;2023-08-07T06:35:17;5.65;;;2.53;;
76409;SDS011;65238;42.662;23.280;2023-08-07T06:37:43;8.57;;;3.65;;
76409;SDS011;65238;42.662;23.280;2023-08-07T06:40:08;5.13;;;3.75;;
76409;SDS011;65238;42.662;23.280;2023-08-07T06:42:34;3.33;;;2.30;;
76409;SDS011;65238;42.662;23.280;2023-08-07T06:45:00;3.08;;;1.95;;
76409;SDS011;65238;42.662;23.280;2023-08-07T06:47:25;4.38;;;1.90;;
76409;SDS011;65238;42.662;23.280;2023-08-07T06:49:51;3.45;;;1.83;;
76409;SDS011;65238;42.662;23.280;2023-08-07T06:52:16;5.70;;;2.13;;
76409;SDS011;65238;42.662;23.280;2023-08-07T06:54:41;1.33;;;1.23;;
76409;SDS011;65238;42.662;23.280;2023-08-07T06:57:07;1.73;;;1.27;;
76409;SDS011;65238;42.662;23.280;2023-08-07T06:59:32;1.55;;;1.45;;
76409;SDS011;65238;42.662;23.280;2023-08-07T07:01:58;2.13;;;1.55;;
76409;SDS011;65238;42.662;23.280;2023-08-07T07:04:23;1.52;;;1.20;;
76409;SDS011;65238;42.662;23.280;2023-08-07T07:06:48;2.72;;;1.30;;
76409;SDS011;65238;42.662;23.280;2023-08-07T07:09:14;4.53;;;1.35;;
76409;SDS011;65238;42.662;23.280;2023-08-07T07:11:41;4.10;;;1.65;;
76409;SDS011;65238;42.662;23.280;2023-08-07T07:14:08;1.92;;;1.60;;
76409;SDS011;65238;42.662;23.280;2023-08-07T07:16:43;1.38;;;1.10;;
76409;SDS011;65238;42.662;23.280;2023-08-07T07:19:15;2.13;;;1.52;;
76409;SDS011;65238;42.662;23.280;2023-08-07T07:21:41;1.33;;;1.15;;
76409;SDS011;65238;42.662;23.280;2023-08-07T07:24:07;1.58;;;1.30;;
76409;SDS011;65238;42.662;23.280;2023-08-07T07:26:32;1.60;;;1.40;;
76409;SDS011;65238;42.662;23.280;2023-08-07T07:28:57;6.50;;;1.67;;
76409;SDS011;65238;42.662;23.280;2023-08-07T07:31:23;1.55;;;1.10;;
76409;SDS011;65238;42.662;23.280;2023-08-07T07:33:48;4.78;;;1.17;;
76409;SDS011;65238;42.662;23.280;2023-08-07T07:36:17;1.00;;;0.90;;
76409;SDS011;65238;42.662;23.280;2023-08-07T07:38:45;0.90;;;0.90;;
76409;SDS011;65238;42.662;23.280;2023-08-07T07:41:11;1.02;;;1.02;;
76409;SDS011;65238;42.662;23.280;2023-08-07T07:43:37;0.98;;;0.95;;
76409;SDS011;65238;42.662;23.280;2023-08-07T07:46:03;1.55;;;1.08;;
76409;SDS011;65238;42.662;23.280;2023-08-07T07:48:28;1.02;;;0.93;;
76409;SDS011;65238;42.662;23.280;2023-08-07T07:51:01;0.77;;;0.75;;
76409;SDS011;65238;42.662;23.280;2023-08-07T07:53:27;1.77;;;1.25;;
76409;SDS011;65238;42.662;23.280;2023-08-07T07:55:52;1.20;;;1.00;;
76409;SDS011;65238;42.662;23.280;2023-08-07T07:58:18;1.70;;;1.17;;
76409;SDS011;65238;42.662;23.280;2023-08-07T08:00:43;1.20;;;1.10;;
76409;SDS011;65238;42.662;23.280;2023-08-07T08:03:08;0.95;;;0.93;;
76409;SDS011;65238;42.662;23.280;2023-08-07T08:05:34;2.67;;;1.20;;
76409;SDS011;65238;42.662;23.280;2023-08-07T08:08:00;2.92;;;1.33;;
76409;SDS011;65238;42.662;23.280;2023-08-07T08:10:26;1.17;;;1.00;;
76409;SDS011;65238;42.662;23.280;2023-08-07T08:12:54;1.98;;;1.17;;
76409;SDS011;65238;42.662;23.280;2023-08-07T08:15:19;1.65;;;1.30;;
76409;SDS011;65238;42.662;23.280;2023-08-07T08:17:46;1.20;;;1.10;;
76409;SDS011;65238;42.662;23.280;2023-08-07T08:20:12;1.42;;;1.10;;
76409;SDS011;65238;42.662;23.280;2023-08-07T08:22:40;2.08;;;1.17;;
76409;SDS011;65238;42.662;23.280;2023-08-07T08:25:06;1.20;;;1.10;;
76409;SDS011;65238;42.662;23.280;2023-08-07T08:27:32;2.47;;;1.15;;
76409;SDS011;65238;42.662;23.280;2023-08-07T08:29:57;1.30;;;1.20;;
76409;SDS011;65238;42.662;23.280;2023-08-07T08:32:23;1.45;;;1.35;;
76409;SDS011;65238;42.662;23.280;2023-08-07T08:34:48;1.83;;;1.20;;
76409;SDS011;65238;42.662;23.280;2023-08-07T08:37:15;1.40;;;1.08;;
76409;SDS011;65238;42.662;23.280;2023-08-07T08:39:40;3.08;;;1.10;;
76409;SDS011;65238;42.662;23.280;2023-08-07T08:42:06;2.08;;;0.90;;
76409;SDS011;65238;42.662;23.280;2023-08-07T08:44:34;1.10;;;1.00;;
76409;SDS011;65238;42.662;23.280;2023-08-07T08:47:02;1.05;;;0.95;;
76409;SDS011;65238;42.662;23.280;2023-08-07T08:49:30;1.23;;;1.13;;
76409;SDS011;65238;42.662;23.280;2023-08-07T08:51:58;1.27;;;1.15;;
76409;SDS011;65238;42.662;23.280;2023-08-07T08:54:24;1.70;;;1.15;;
76409;SDS011;65238;42.662;23.280;2023-08-07T08:56:50;2.80;;;2.22;;
76409;SDS011;65238;42.662;23.280;2023-08-07T08:59:15;2.08;;;1.05;;
76409;SDS011;65238;42.662;23.280;2023-08-07T09:01:43;1.20;;;1.10;;
76409;SDS011;65238;42.662;23.280;2023-08-07T09:04:09;1.38;;;1.00;;
76409;SDS011;65238;42.662;23.280;2023-08-07T09:06:35;2.45;;;1.20;;
76409;SDS011;65238;42.662;23.280;2023-08-07T09:09:01;1.67;;;0.95;;
76409;SDS011;65238;42.662;23.280;2023-08-07T09:11:26;1.55;;;1.25;;
76409;SDS011;65238;42.662;23.280;2023-08-07T09:13:53;1.55;;;1.25;;
76409;SDS011;65238;42.662;23.280;2023-08-07T09:16:19;2.85;;;1.60;;
76409;SDS011;65238;42.662;23.280;2023-08-07T09:18:45;1.48;;;1.20;;
76409;SDS011;65238;42.662;23.280;2023-08-07T09:21:11;3.80;;;1.40;;
76409;SDS011;65238;42.662;23.280;2023-08-07T09:23:36;1.20;;;1.10;;
76409;SDS011;65238;42.662;23.280;2023-08-07T09:26:03;2.05;;;1.38;;
76409;SDS011;65238;42.662;23.280;2023-08-07T09:28:29;3.00;;;1.17;;
76409;SDS011;65238;42.662;23.280;2023-08-07T09:30:55;1.77;;;1.10;;
76409;SDS011;65238;42.662;23.280;2023-08-07T09:33:27;1.20;;;1.00;;
76409;SDS011;65238;42.662;23.280;2023-08-07T09:35:57;1.25;;;1.10;;
76409;SDS011;65238;42.662;23.280;2023-08-07T09:38:23;2.17;;;1.27;;
76409;SDS011;65238;42.662;23.280;2023-08-07T09:40:58;1.75;;;1.20;;
76409;SDS011;65238;42.662;23.280;2023-08-07T09:43:28;2.28;;;1.30;;
76409;SDS011;65238;42.662;23.280;2023-08-07T09:46:03;1.85;;;1.45;;
76409;SDS011;65238;42.662;23.280;2023-08-07T09:48:29;3.30;;;1.67;;
76409;SDS011;65238;42.662;23.280;2023-08-07T09:50:58;1.48;;;1.20;;
76409;SDS011;65238;42.662;23.280;2023-08-07T09:53:27;1.38;;;1.10;;
76409;SDS011;65238;42.662;23.280;2023-08-07T09:55:53;1.20;;;1.10;;
76409;SDS011;65238;42.662;23.280;2023-08-07T09:58:18;1.33;;;1.23;;
76409;SDS011;65238;42.662;23.280;2023-08-07T10:00:44;1.25;;;1.15;;
76409;SDS011;65238;42.662;23.280;2023-08-07T10:03:12;3.20;;;1.30;;
76409;SDS011;65238;42.662;23.280;2023-08-07T10:05:38;1.80;;;1.65;;
76409;SDS011;65238;42.662;23.280;2023-08-07T10:08:03;2.38;;;1.25;;
76409;SDS011;65238;42.662;23.280;2023-08-07T10:10:30;2.17;;;1.13;;
76409;SDS011;65238;42.662;23.280;2023-08-07T10:12:58;1.40;;;1.30;;
76409;SDS011;65238;42.662;23.280;2023-08-07T10:15:25;1.17;;;1.08;;
76409;SDS011;65238;42.662;23.280;2023-08-07T10:17:51;1.15;;;1.05;;
76409;SDS011;65238;42.662;23.280;2023-08-07T10:20:17;2.92;;;1.17;;
76409;SDS011;65238;42.662;23.280;2023-08-07T10:22:42;2.10;;;0.90;;
76409;SDS011;65238;42.662;23.280;2023-08-07T10:25:08;1.83;;;1.50;;
76409;SDS011;65238;42.662;23.280;2023-08-07T10:27:35;3.13;;;1.17;;
76409;SDS011;65238;42.662;23.280;2023-08-07T10:30:04;1.58;;;1.38;;
76409;SDS011;65238;42.662;23.280;2023-08-07T10:32:32;3.42;;;1.23;;
76409;SDS011;65238;42.662;23.280;2023-08-07T10:34:58;1.95;;;1.50;;
76409;SDS011;65238;42.662;23.280;2023-08-07T10:37:39;1.85;;;1.20;;
76409;SDS011;65238;42.662;23.280;2023-08-07T10:40:06;4.88;;;1.67;;
76409;SDS011;65238;42.662;23.280;2023-08-07T10:42:51;1.95;;;1.48;;
76409;SDS011;65238;42.662;23.280;2023-08-07T10:45:17;1.58;;;1.45;;
76409;SDS011;65238;42.662;23.280;2023-08-07T10:47:43;1.23;;;1.13;;
76409;SDS011;65238;42.662;23.280;2023-08-07T10:50:09;1.70;;;1.23;;
76409;SDS011;65238;42.662;23.280;2023-08-07T10:52:34;2.05;;;1.10;;
76409;SDS011;65238;42.662;23.280;2023-08-07T10:55:12;2.55;;;1.20;;
76409;SDS011;65238;42.662;23.280;2023-08-07T10:57:39;2.33;;;1.25;;
76409;SDS011;65238;42.662;23.280;2023-08-07T11:00:05;1.10;;;1.00;;
76409;SDS011;65238;42.662;23.280;2023-08-07T11:02:35;1.35;;;1.20;;
76409;SDS011;65238;42.662;23.280;2023-08-07T11:05:04;2.27;;;1.20;;
76409;SDS011;65238;42.662;23.280;2023-08-07T11:07:30;2.90;;;1.33;;
76409;SDS011;65238;42.662;23.280;2023-08-07T11:09:56;0.82;;;0.82;;
76409;SDS011;65238;42.662;23.280;2023-08-07T11:12:26;1.33;;;1.23;;
76409;SDS011;65238;42.662;23.280;2023-08-07T11:14:52;1.58;;;1.20;;
76409;SDS011;65238;42.662;23.280;2023-08-07T11:17:21;1.35;;;1.20;;
76409;SDS011;65238;42.662;23.280;2023-08-07T11:19:49;2.10;;;1.42;;
76409;SDS011;65238;42.662;23.280;2023-08-07T11:22:15;1.45;;;1.08;;
76409;SDS011;65238;42.662;23.280;2023-08-07T11:24:41;1.23;;;1.10;;
76409;SDS011;65238;42.662;23.280;2023-08-07T11:27:07;6.72;;;1.30;;
76409;SDS011;65238;42.662;23.280;2023-08-07T11:29:33;3.55;;;1.40;;
76409;SDS011;65238;42.662;23.280;2023-08-07T11:31:58;2.58;;;1.20;;
76409;SDS011;65238;42.662;23.280;2023-08-07T11:34:24;1.98;;;1.20;;
76409;SDS011;65238;42.662;23.280;2023-08-07T11:36:50;1.33;;;1.23;;
76409;SDS011;65238;42.662;23.280;2023-08-07T11:39:16;2.50;;;1.13;;
76409;SDS011;65238;42.662;23.280;2023-08-07T11:41:42;3.90;;;1.27;;
76409;SDS011;65238;42.662;23.280;2023-08-07T11:44:09;1.98;;;1.33;;
76409;SDS011;65238;42.662;23.280;2023-08-07T11:46:35;2.88;;;1.23;;
76409;SDS011;65238;42.662;23.280;2023-08-07T11:49:01;1.40;;;1.30;;
76409;SDS011;65238;42.662;23.280;2023-08-07T11:51:28;2.55;;;1.30;;
76409;SDS011;65238;42.662;23.280;2023-08-07T11:53:54;2.25;;;1.42;;
76409;SDS011;65238;42.662;23.280;2023-08-07T11:56:23;1.70;;;1.20;;
76409;SDS011;65238;42.662;23.280;2023-08-07T11:58:48;4.43;;;1.40;;
76409;SDS011;65238;42.662;23.280;2023-08-07T12:01:20;1.50;;;1.27;;
76409;SDS011;65238;42.662;23.280;2023-08-07T12:06:15;3.67;;;1.27;;
76409;SDS011;65238;42.662;23.280;2023-08-07T12:08:41;1.50;;;1.30;;
76409;SDS011;65238;42.662;23.280;2023-08-07T12:11:13;2.55;;;1.35;;
76409;SDS011;65238;42.662;23.280;2023-08-07T12:13:39;1.42;;;1.17;;
76409;SDS011;65238;42.662;23.280;2023-08-07T12:16:06;3.13;;;1.23;;
76409;SDS011;65238;42.662;23.280;2023-08-07T12:18:32;1.83;;;1.25;;
76409;SDS011;65238;42.662;23.280;2023-08-07T12:21:02;5.00;;;1.40;;
76409;SDS011;65238;42.662;23.280;2023-08-07T12:23:30;1.83;;;1.30;;
76409;SDS011;65238;42.662;23.280;2023-08-07T12:25:58;2.63;;;1.45;;
76409;SDS011;65238;42.662;23.280;2023-08-07T12:28:23;1.85;;;1.30;;
76409;SDS011;65238;42.662;23.280;2023-08-07T12:30:49;1.60;;;1.50;;
76409;SDS011;65238;42.662;23.280;2023-08-07T12:33:15;5.72;;;1.42;;
76409;SDS011;65238;42.662;23.280;2023-08-07T12:35:41;1.52;;;1.42;;
76409;SDS011;65238;42.662;23.280;2023-08-07T12:38:07;3.80;;;1.67;;
76409;SDS011;65238;42.662;23.280;2023-08-07T12:40:33;3.80;;;1.50;;
76409;SDS011;65238;42.662;23.280;2023-08-07T12:43:01;2.95;;;1.90;;
76409;SDS011;65238;42.662;23.280;2023-08-07T12:45:27;3.70;;;1.60;;
76409;SDS011;65238;42.662;23.280;2023-08-07T12:47:52;1.50;;;1.38;;
76409;SDS011;65238;42.662;23.280;2023-08-07T12:50:17;1.73;;;1.63;;
76409;SDS011;65238;42.662;23.280;2023-08-07T12:52:43;1.83;;;1.52;;
76409;SDS011;65238;42.662;23.280;2023-08-07T12:55:09;2.38;;;1.67;;
76409;SDS011;65238;42.662;23.280;2023-08-07T12:57:36;2.88;;;1.95;;
76409;SDS011;65238;42.662;23.280;2023-08-07T13:00:01;3.45;;;1.38;;
76409;SDS011;65238;42.662;23.280;2023-08-07T13:02:27;3.72;;;1.90;;
76409;SDS011;65238;42.662;23.280;2023-08-07T13:04:53;3.08;;;1.60;;
76409;SDS011;65238;42.662;23.280;2023-08-07T13:07:19;3.70;;;1.55;;
76409;SDS011;65238;42.662;23.280;2023-08-07T13:09:44;4.28;;;1.50;;
76409;SDS011;65238;42.662;23.280;2023-08-07T13:12:09;3.25;;;1.50;;
76409;SDS011;65238;42.662;23.280;2023-08-07T13:14:35;4.03;;;1.42;;
76409;SDS011;65238;42.662;23.280;2023-08-07T13:17:00;2.45;;;1.70;;
76409;SDS011;65238;42.662;23.280;2023-08-07T13:19:26;2.28;;;1.60;;
76409;SDS011;65238;42.662;23.280;2023-08-07T13:21:51;3.05;;;1.50;;
76409;SDS011;65238;42.662;23.280;2023-08-07T13:24:16;1.98;;;1.73;;
76409;SDS011;65238;42.662;23.280;2023-08-07T13:26:42;2.33;;;1.60;;
76409;SDS011;65238;42.662;23.280;2023-08-07T13:29:10;2.63;;;1.80;;
76409;SDS011;65238;42.662;23.280;2023-08-07T13:31:36;5.32;;;1.48;;
76409;SDS011;65238;42.662;23.280;2023-08-07T13:34:02;2.67;;;1.45;;
76409;SDS011;65238;42.662;23.280;2023-08-07T13:36:33;4.68;;;1.30;;
76409;SDS011;65238;42.662;23.280;2023-08-07T13:38:59;2.35;;;1.38;;
76409;SDS011;65238;42.662;23.280;2023-08-07T13:41:25;2.03;;;1.40;;
76409;SDS011;65238;42.662;23.280;2023-08-07T13:43:51;3.38;;;1.30;;
76409;SDS011;65238;42.662;23.280;2023-08-07T13:46:16;3.83;;;1.63;;
76409;SDS011;65238;42.662;23.280;2023-08-07T13:48:43;1.90;;;1.10;;
76409;SDS011;65238;42.662;23.280;2023-08-07T13:51:09;2.33;;;1.58;;
76409;SDS011;65238;42.662;23.280;2023-08-07T13:53:35;4.40;;;1.60;;
76409;SDS011;65238;42.662;23.280;2023-08-07T13:56:01;5.18;;;1.90;;
76409;SDS011;65238;42.662;23.280;2023-08-07T13:58:26;4.30;;;2.53;;
76409;SDS011;65238;42.662;23.280;2023-08-07T14:00:53;9.90;;;5.07;;
76409;SDS011;65238;42.662;23.280;2023-08-07T14:03:18;5.93;;;3.55;;
76409;SDS011;65238;42.662;23.280;2023-08-07T14:05:44;4.55;;;2.20;;
76409;SDS011;65238;42.662;23.280;2023-08-07T14:08:10;2.67;;;1.98;;
76409;SDS011;65238;42.662;23.280;2023-08-07T14:10:35;1.58;;;1.45;;
76409;SDS011;65238;42.662;23.280;2023-08-07T14:13:03;2.92;;;1.60;;
76409;SDS011;65238;42.662;23.280;2023-08-07T14:15:29;2.45;;;1.35;;
76409;SDS011;65238;42.662;23.280;2023-08-07T14:17:55;2.90;;;1.40;;
76409;SDS011;65238;42.662;23.280;2023-08-07T14:20:20;2.60;;;1.73;;
76409;SDS011;65238;42.662;23.280;2023-08-07T14:22:46;1.80;;;1.63;;
76409;SDS011;65238;42.662;23.280;2023-08-07T14:25:12;2.33;;;1.48;;
76409;SDS011;65238;42.662;23.280;2023-08-07T14:27:37;3.55;;;1.52;;
76409;SDS011;65238;42.662;23.280;2023-08-07T14:30:03;1.75;;;1.35;;
76409;SDS011;65238;42.662;23.280;2023-08-07T14:32:28;2.35;;;1.60;;